Time;durP1;ratioP1;P1;durP2;ratioP2;P2;SDS_P1;SDS_P2;PMS_P1;PMS_P2;Temp;Humidity;BMP_temperature;BMP_pressure;BME280_temperature;BME280_humidity;BME280_pressure;Samples;Min_cycle;Max_cycle;Signal;HPM_P1;HPM_P2
2021/07/07 00:00:23;;;;;;;7.13;6.43;;;;;;;22.34;60.09;101019.69;5091101;28;20178;-60
2021/07/07 00:02:50;;;;;;;7.47;6.53;;;;;;;22.61;60.42;101084.13;5091567;28;20264;-60
2021/07/07 00:05:40;;;;;;;6.53;5.93;;;;;;;22.60;60.38;101076.91;5091547;28;20175;-60
2021/07/07 00:08:06;;;;;;;7.00;6.30;;;;;;;22.48;60.89;101083.75;5091176;28;20575;-60
2021/07/07 00:10:35;;;;;;;8.50;6.10;;;;;;;22.49;60.72;101077.63;5091264;28;20171;-60
2021/07/07 00:13:02;;;;;;;9.23;6.23;;;;;;;21.63;60.68;100950.16;5091264;28;20171;-59
2021/07/07 00:15:31;;;;;;;9.13;6.57;;;;;;;22.39;60.93;101084.69;5091451;28;20250;-60
2021/07/07 00:17:57;;;;;;;10.73;6.73;;;;;;;22.27;61.47;101073.81;5091280;28;20280;-60
2021/07/07 00:20:23;;;;;;;9.63;7.20;;;;;;;22.29;61.71;101071.25;5090687;28;20241;-60
2021/07/07 00:22:48;;;;;;;8.60;6.33;;;;;;;22.23;61.70;101074.06;5089979;28;20171;-60
2021/07/07 00:25:14;;;;;;;8.83;6.97;;;;;;;22.30;61.09;101076.41;5082836;28;20189;-60
2021/07/07 00:27:40;;;;;;;8.40;6.60;;;;;;;22.35;61.46;101083.38;5070990;28;20723;-60
2021/07/07 00:30:07;;;;;;;8.53;6.23;;;;;;;22.28;61.55;101066.91;5070621;28;20630;-60
2021/07/07 00:32:33;;;;;;;8.30;7.07;;;;;;;21.97;61.63;101030.22;5086658;28;20190;-60
2021/07/07 00:34:58;;;;;;;7.60;6.10;;;;;;;22.37;61.23;101069.53;5091461;28;20167;-60
2021/07/07 00:37:24;;;;;;;7.63;6.40;;;;;;;22.40;61.34;101074.94;5090975;28;20185;-60
2021/07/07 00:39:49;;;;;;;8.93;6.70;;;;;;;22.35;61.27;101058.75;5090638;28;20186;-60
2021/07/07 00:42:15;;;;;;;7.10;6.00;;;;;;;21.75;61.30;100979.25;5090942;28;20240;-60
2021/07/07 00:44:41;;;;;;;7.00;6.30;;;;;;;22.39;61.36;101081.09;5073259;28;20183;-60
2021/07/07 00:47:06;;;;;;;8.43;7.03;;;;;;;22.41;61.20;101079.31;5070780;28;20228;-60
2021/07/07 00:49:32;;;;;;;7.50;6.70;;;;;;;22.39;61.34;101086.75;5081401;28;20712;-59
2021/07/07 00:51:58;;;;;;;9.07;6.80;;;;;;;22.38;61.48;101080.34;5090723;28;20175;-60
2021/07/07 00:54:25;;;;;;;8.83;7.30;;;;;;;22.39;61.37;101083.91;5090930;28;20387;-60
2021/07/07 00:56:51;;;;;;;10.13;7.07;;;;;;;22.26;61.22;101067.38;5090859;28;20198;-60
2021/07/07 00:59:20;;;;;;;10.50;7.30;;;;;;;22.29;61.16;101074.88;5090630;28;20210;-60
2021/07/07 01:01:46;;;;;;;8.97;6.90;;;;;;;21.66;60.92;100971.72;5090843;28;20647;-60
2021/07/07 01:04:11;;;;;;;9.50;7.37;;;;;;;22.25;61.44;101094.09;5090518;28;20179;-60
2021/07/07 01:06:37;;;;;;;9.07;6.53;;;;;;;22.24;61.48;101092.53;5090721;28;20291;-60
2021/07/07 01:09:03;;;;;;;9.30;7.20;;;;;;;22.24;61.33;101086.09;5090564;28;20178;-60
2021/07/07 01:11:32;;;;;;;8.40;6.80;;;;;;;22.20;61.38;101080.69;5090819;28;20556;-60
2021/07/07 01:13:57;;;;;;;9.23;7.20;;;;;;;22.18;61.27;101094.56;5090711;28;20481;-60
2021/07/07 01:16:23;;;;;;;7.90;6.70;;;;;;;21.15;61.65;100951.25;5090479;28;20399;-60
2021/07/07 01:18:48;;;;;;;9.30;7.00;;;;;;;22.14;61.64;101104.50;5091151;28;20210;-60
2021/07/07 01:21:15;;;;;;;11.63;7.90;;;;;;;22.17;61.26;101114.81;5090188;28;20223;-60
2021/07/07 01:23:40;;;;;;;10.40;6.87;;;;;;;22.14;61.62;101098.84;5090667;28;20180;-60
2021/07/07 01:26:06;;;;;;;10.70;7.40;;;;;;;21.53;61.46;101010.81;5090478;28;20190;-60
2021/07/07 01:28:32;;;;;;;10.17;7.20;;;;;;;22.04;61.13;101094.66;5090510;28;20189;-60
2021/07/07 01:30:58;;;;;;;9.93;6.80;;;;;;;22.14;61.33;101098.84;5088846;28;20189;-60
2021/07/07 01:33:23;;;;;;;10.87;7.10;;;;;;;22.20;61.25;101113.78;5089171;28;20167;-60
2021/07/07 01:35:49;;;;;;;13.03;7.50;;;;;;;22.20;61.04;101111.75;5090668;28;20175;-60
2021/07/07 01:38:14;;;;;;;8.57;6.50;;;;;;;22.10;60.89;101099.09;5090164;28;20396;-60
2021/07/07 01:40:40;;;;;;;11.00;6.63;;;;;;;22.21;60.86;101113.28;5090301;28;20178;-60
2021/07/07 01:43:05;;;;;;;10.73;6.63;;;;;;;22.20;60.80;101114.56;5090348;28;20550;-60
2021/07/07 01:45:31;;;;;;;7.67;6.50;;;;;;;22.14;60.75;101101.69;5094303;28;20179;-60
2021/07/07 01:47:57;;;;;;;10.60;7.10;;;;;;;22.18;60.83;101113.53;5094293;28;20644;-60
2021/07/07 01:50:24;;;;;;;11.27;6.70;;;;;;;22.14;60.96;101119.41;5074652;28;20182;-60
2021/07/07 01:52:50;;;;;;;13.57;6.73;;;;;;;22.12;61.00;101118.34;5073808;28;20187;-60
2021/07/07 01:55:16;;;;;;;11.37;7.17;;;;;;;22.12;60.86;101121.19;5073715;28;20172;-61
2021/07/07 01:57:43;;;;;;;8.77;7.13;;;;;;;22.10;60.84;101118.09;5073669;28;20271;-59
2021/07/07 02:00:13;;;;;;;8.97;6.73;;;;;;;22.06;61.11;101121.13;5073259;28;20685;-60
2021/07/07 02:02:39;;;;;;;9.23;7.10;;;;;;;21.98;61.45;101130.53;5093873;28;20197;-60
2021/07/07 02:05:07;;;;;;;9.50;6.70;;;;;;;21.93;61.61;101126.41;5093806;28;20170;-60
2021/07/07 02:07:32;;;;;;;11.20;7.60;;;;;;;21.11;61.69;100995.78;5093714;28;20243;-60
2021/07/07 02:09:58;;;;;;;11.83;7.33;;;;;;;21.97;61.74;101126.16;5074513;28;20584;-60
2021/07/07 02:12:24;;;;;;;11.23;7.03;;;;;;;22.01;61.52;101121.84;5074540;28;20209;-60
2021/07/07 02:14:49;;;;;;;8.97;6.70;;;;;;;21.95;61.63;101118.19;5093672;28;20179;-60
2021/07/07 02:17:15;;;;;;;14.67;7.10;;;;;;;22.02;61.87;101125.44;5093674;28;20239;-60
2021/07/07 02:19:40;;;;;;;10.23;6.97;;;;;;;21.93;62.18;101122.78;5094457;28;20249;-60
2021/07/07 02:22:06;;;;;;;10.27;7.30;;;;;;;21.88;62.10;101115.03;5113739;28;20181;-60
2021/07/07 02:24:31;;;;;;;10.13;6.90;;;;;;;21.91;62.04;101126.09;5113748;28;20173;-60
2021/07/07 02:26:57;;;;;;;10.47;7.17;;;;;;;21.97;61.84;101129.78;5113883;28;20235;-60
2021/07/07 02:29:22;;;;;;;10.83;7.03;;;;;;;22.04;61.88;101137.00;5114024;28;20174;-60
2021/07/07 02:31:48;;;;;;;11.30;6.90;;;;;;;22.03;61.98;101143.94;5113384;28;20186;-60
2021/07/07 02:34:13;;;;;;;8.37;6.23;;;;;;;21.91;62.13;101140.22;5113639;28;20175;-60
2021/07/07 02:36:39;;;;;;;7.87;6.60;;;;;;;21.76;61.69;101124.69;5113536;28;20189;-60
2021/07/07 02:39:05;;;;;;;9.37;6.17;;;;;;;21.91;61.54;101157.13;5113300;28;20205;-60
2021/07/07 02:41:31;;;;;;;9.70;6.53;;;;;;;21.90;61.70;101143.56;5113273;28;20170;-60
2021/07/07 02:43:56;;;;;;;11.70;7.17;;;;;;;21.84;61.73;101143.47;5113222;28;20184;-59
2021/07/07 02:46:22;;;;;;;10.27;7.30;;;;;;;21.49;62.04;101113.84;5095144;28;20265;-60
2021/07/07 02:48:47;;;;;;;10.33;7.13;;;;;;;21.72;61.90;101150.28;5113432;28;20616;-60
2021/07/07 02:51:13;;;;;;;13.97;7.83;;;;;;;21.68;62.16;101148.91;5113031;28;20189;-60
2021/07/07 02:53:38;;;;;;;10.90;7.43;;;;;;;21.66;62.11;101154.28;5113421;28;20182;-60
2021/07/07 02:56:04;;;;;;;13.83;8.17;;;;;;;21.67;62.21;101156.63;5112153;28;20265;-60
2021/07/07 02:58:30;;;;;;;10.17;7.67;;;;;;;21.63;62.48;101158.88;5113196;28;20721;-60
2021/07/07 03:00:56;;;;;;;12.63;7.67;;;;;;;21.35;62.65;101123.91;5112868;28;20187;-60
2021/07/07 03:03:23;;;;;;;12.07;8.13;;;;;;;21.52;62.69;101155.13;5113220;28;20205;-60
2021/07/07 03:05:59;;;;;;;9.60;7.37;;;;;;;21.55;62.64;101156.97;5094801;28;20182;-60
2021/07/07 03:08:27;;;;;;;9.70;7.17;;;;;;;21.49;62.85;101168.19;5106892;28;20171;-60
2021/07/07 03:10:53;;;;;;;10.70;7.57;;;;;;;21.55;62.45;101174.66;5092329;28;20606;-60
2021/07/07 03:13:20;;;;;;;9.77;7.73;;;;;;;21.59;62.48;101171.66;5101318;28;20668;-59
2021/07/07 03:15:46;;;;;;;13.90;8.13;;;;;;;21.33;62.28;101132.09;5112926;28;20215;-60
2021/07/07 03:18:13;;;;;;;10.67;7.30;;;;;;;21.65;62.23;101172.47;5112574;28;20190;-60
2021/07/07 03:20:40;;;;;;;10.90;7.50;;;;;;;21.61;62.06;101169.09;5094771;28;20600;-60
2021/07/07 03:23:07;;;;;;;12.77;7.60;;;;;;;21.22;61.79;101105.81;5092117;28;20187;-60
2021/07/07 03:25:34;;;;;;;18.43;13.83;;;;;;;21.70;62.04;101194.38;5091830;28;20267;-60
2021/07/07 03:28:00;;;;;;;34.07;28.33;;;;;;;21.69;62.00;101193.59;5092356;28;20663;-60
2021/07/07 03:30:26;;;;;;;30.43;25.67;;;;;;;21.70;62.11;101191.56;5091996;28;20265;-60
2021/07/07 03:32:53;;;;;;;33.73;27.60;;;;;;;21.58;62.14;101167.25;5092054;28;20179;-60
2021/07/07 03:35:18;;;;;;;28.10;21.47;;;;;;;21.76;61.87;101193.16;5073935;28;20175;-60
2021/07/07 03:37:44;;;;;;;28.83;19.70;;;;;;;21.76;61.81;101204.47;5091929;28;20182;-60
2021/07/07 03:40:10;;;;;;;27.63;20.70;;;;;;;21.76;61.99;101201.63;5091254;28;20281;-60
2021/07/07 03:42:37;;;;;;;25.97;20.03;;;;;;;21.06;62.22;101104.34;5091838;28;20175;-60
2021/07/07 03:45:02;;;;;;;23.57;17.87;;;;;;;21.45;62.20;101161.97;5109168;28;20198;-60
2021/07/07 03:47:29;;;;;;;16.93;13.37;;;;;;;21.78;62.16;101201.91;5112083;28;20208;-60
2021/07/07 03:49:54;;;;;;;19.93;13.33;;;;;;;21.80;62.03;101202.16;5098477;28;20192;-60
2021/07/07 03:52:20;;;;;;;15.13;12.67;;;;;;;21.84;62.14;101193.47;5091700;28;20167;-60
2021/07/07 03:54:46;;;;;;;15.43;11.57;;;;;;;21.86;62.13;101205.81;5091459;28;20175;-60
2021/07/07 03:57:11;;;;;;;14.37;10.67;;;;;;;21.91;61.80;101210.00;5101894;28;20592;-60
2021/07/07 03:59:37;;;;;;;14.27;10.80;;;;;;;21.95;61.67;101216.22;5111962;28;20195;-60
2021/07/07 04:02:02;;;;;;;12.47;9.90;;;;;;;21.98;61.95;101224.44;5096609;28;20329;-60
2021/07/07 04:04:28;;;;;;;13.07;9.47;;;;;;;22.05;61.86;101214.78;5091438;28;20182;-60
2021/07/07 04:07:00;;;;;;;13.07;9.47;;;;;;;21.92;61.85;101192.56;5094132;28;20277;-60
2021/07/07 04:09:29;;;;;;;11.23;9.47;;;;;;;21.39;61.40;101110.38;5096984;28;20638;-60
2021/07/07 04:11:59;;;;;;;11.73;9.50;;;;;;;22.19;61.18;101220.31;5091165;28;20687;-59
2021/07/07 04:14:25;;;;;;;14.13;9.37;;;;;;;22.22;61.25;101227.75;5096835;28;20182;-60
2021/07/07 04:16:52;;;;;;;11.17;9.10;;;;;;;22.27;61.55;101227.03;5063079;28;20266;-60
2021/07/07 04:19:18;;;;;;;12.47;9.23;;;;;;;21.65;62.28;101136.56;5089691;28;20264;-60
2021/07/07 04:21:44;;;;;;;11.83;9.37;;;;;;;22.33;62.52;101235.59;5090402;28;20222;-60
2021/07/07 04:24:10;;;;;;;10.73;9.63;;;;;;;22.29;61.76;101229.38;5090354;28;20277;-60
2021/07/07 04:26:36;;;;;;;5.87;4.80;;;;;;;23.61;64.61;101241.72;5089915;28;20183;-62
2021/07/07 04:29:01;;;;;;;10.23;8.03;;;;;;;23.48;58.77;101230.06;5066882;28;20183;-64
2021/07/07 04:31:27;;;;;;;11.83;8.37;;;;;;;23.49;60.33;101235.22;5090619;28;20179;-65
2021/07/07 04:33:53;;;;;;;10.83;8.23;;;;;;;23.36;59.27;101242.59;5090480;28;20258;-63
2021/07/07 04:36:18;;;;;;;8.73;7.50;;;;;;;23.13;59.89;101238.84;5071348;28;20274;-60
2021/07/07 04:38:44;;;;;;;9.60;8.57;;;;;;;23.02;60.23;101240.84;5090528;28;20194;-63
2021/07/07 04:41:10;;;;;;;10.60;8.03;;;;;;;22.98;60.92;101245.94;5071971;28;20694;-65
2021/07/07 04:43:35;;;;;;;10.03;8.00;;;;;;;22.86;61.54;101255.59;5086177;28;20603;-64
2021/07/07 04:46:01;;;;;;;9.87;8.37;;;;;;;22.81;61.97;101259.16;5090438;28;20183;-64
2021/07/07 04:48:26;;;;;;;9.57;8.17;;;;;;;22.76;62.78;101257.06;5088720;28;20182;-63
2021/07/07 04:50:52;;;;;;;12.40;8.37;;;;;;;22.85;62.90;101259.69;5090288;28;20171;-61
2021/07/07 04:53:17;;;;;;;8.40;7.50;;;;;;;22.53;62.25;101213.72;5090390;28;20231;-60
2021/07/07 04:55:43;;;;;;;12.87;7.90;;;;;;;22.25;63.17;101150.53;5071973;28;20332;-63
2021/07/07 04:58:08;;;;;;;11.60;8.07;;;;;;;23.05;62.87;101259.59;5076924;28;20270;-64
2021/07/07 05:00:34;;;;;;;8.37;7.47;;;;;;;23.25;62.78;101265.16;5083325;28;20209;-70
2021/07/07 05:03:00;;;;;;;10.23;8.20;;;;;;;23.43;61.72;101262.69;5097311;28;20182;-65
2021/07/07 05:05:26;;;;;;;10.83;7.63;;;;;;;22.96;61.14;101155.19;5094850;28;20877;-65
2021/07/07 05:07:51;;;;;;;10.40;7.47;;;;;;;24.16;59.83;101273.84;5082502;28;20175;-65
2021/07/07 05:10:17;;;;;;;10.07;6.67;;;;;;;24.75;57.84;101268.03;5084128;28;20257;-65
2021/07/07 05:12:43;;;;;;;8.67;6.63;;;;;;;25.09;56.31;101259.03;5090657;28;20197;-65
2021/07/07 05:15:11;;;;;;;8.67;7.00;;;;;;;24.89;56.58;101227.31;5094442;28;20699;-65
2021/07/07 05:17:38;;;;;;;8.90;6.77;;;;;;;25.25;56.54;101272.44;5094327;28;20210;-65
2021/07/07 05:20:05;;;;;;;9.10;7.47;;;;;;;25.43;54.49;101185.97;5096889;28;20233;-65
2021/07/07 05:22:30;;;;;;;7.33;6.63;;;;;;;25.80;53.72;101268.66;5106017;28;20167;-64
2021/07/07 05:24:56;;;;;;;8.87;7.37;;;;;;;25.75;54.62;101269.44;5110183;27;20659;-65
2021/07/07 05:27:22;;;;;;;9.97;7.40;;;;;;;26.09;53.93;101282.22;5110833;28;20174;-65
2021/07/07 05:29:47;;;;;;;9.60;6.87;;;;;;;26.29;53.26;101279.00;5112095;28;20170;-65
2021/07/07 05:32:19;;;;;;;9.80;7.37;;;;;;;26.54;52.05;101283.50;5103391;28;20186;-65
2021/07/07 05:34:45;;;;;;;11.63;6.67;;;;;;;26.14;53.35;101255.84;5104866;28;20239;-65
2021/07/07 05:37:10;;;;;;;9.70;6.73;;;;;;;26.33;53.65;101285.19;5113825;27;20213;-65
2021/07/07 05:39:36;;;;;;;10.77;7.47;;;;;;;26.11;54.02;101293.84;5109770;27;20569;-65
2021/07/07 05:42:01;;;;;;;10.47;7.43;;;;;;;26.06;54.49;101284.03;5107457;28;20190;-65
2021/07/07 05:44:27;;;;;;;9.37;6.97;;;;;;;26.25;53.86;101289.91;5109881;27;20248;-65
2021/07/07 05:46:53;;;;;;;11.93;7.50;;;;;;;26.49;54.15;101296.47;5107402;28;20176;-65
2021/07/07 05:49:19;;;;;;;9.93;7.20;;;;;;;26.38;53.58;101284.38;5108563;28;20231;-65
2021/07/07 05:51:44;;;;;;;13.73;7.77;;;;;;;26.28;54.00;101306.66;5108770;28;20178;-65
2021/07/07 05:54:10;;;;;;;11.67;7.93;;;;;;;26.30;53.69;101277.72;5108452;28;20221;-65
2021/07/07 05:56:35;;;;;;;9.83;7.57;;;;;;;26.07;53.48;101206.06;5090130;28;20178;-65
2021/07/07 05:59:01;;;;;;;9.40;7.30;;;;;;;26.80;52.68;101301.69;5109524;28;20209;-66
2021/07/07 06:01:26;;;;;;;13.50;7.60;;;;;;;26.83;52.05;101258.00;5105957;28;20209;-66
2021/07/07 06:03:52;;;;;;;9.87;7.40;;;;;;;27.26;51.69;101309.34;5109892;27;20174;-66
2021/07/07 06:06:17;;;;;;;10.70;7.60;;;;;;;26.72;51.33;101201.19;5108736;27;20216;-65
2021/07/07 06:08:43;;;;;;;11.00;7.17;;;;;;;27.50;50.91;101303.66;5109018;28;20190;-66
2021/07/07 06:11:09;;;;;;;9.13;7.80;;;;;;;27.61;50.83;101295.78;5102222;28;20186;-65
2021/07/07 06:13:34;;;;;;;12.20;7.57;;;;;;;26.90;51.27;101223.28;5101265;28;20238;-66
2021/07/07 06:16:00;;;;;;;8.27;7.37;;;;;;;27.85;50.36;101312.09;5106951;28;20201;-66
2021/07/07 06:18:26;;;;;;;10.95;6.95;;;;;;;27.96;50.16;101314.81;5109225;28;20293;-66
2021/07/07 06:20:52;;;;;;;10.27;6.47;;;;;;;27.99;49.60;101313.75;5106501;27;20283;-65
2021/07/07 06:23:18;;;;;;;12.18;7.75;;;;;;;28.13;49.58;101319.00;5108628;27;20178;-65
2021/07/07 06:25:43;;;;;;;8.38;7.40;;;;;;;28.19;49.72;101318.91;5106907;28;20181;-65
2021/07/07 06:28:09;;;;;;;8.95;7.68;;;;;;;28.28;49.53;101325.00;5108654;28;20182;-65
2021/07/07 06:30:34;;;;;;;9.55;7.78;;;;;;;28.25;49.97;101323.22;5085163;28;20213;-66
2021/07/07 06:33:01;;;;;;;8.93;7.50;;;;;;;28.21;49.21;101314.22;5108450;27;20207;-66
2021/07/07 06:35:31;;;;;;;10.50;7.40;;;;;;;28.48;49.26;101315.94;5106765;28;20185;-65
2021/07/07 06:37:57;;;;;;;10.80;7.50;;;;;;;28.51;48.90;101320.56;5111508;27;20179;-65
2021/07/07 06:40:23;;;;;;;10.07;8.10;;;;;;;28.51;49.03;101322.66;5107972;28;20219;-65
2021/07/07 06:42:50;;;;;;;10.27;7.40;;;;;;;28.53;49.18;101309.41;5104514;28;20174;-65
2021/07/07 06:45:16;;;;;;;10.50;7.88;;;;;;;28.34;49.20;101297.19;5105867;28;20182;-65
2021/07/07 06:47:42;;;;;;;12.27;7.75;;;;;;;28.27;49.41;101248.59;5107462;28;20193;-65
2021/07/07 06:50:10;;;;;;;9.32;7.88;;;;;;;27.50;49.68;101209.72;5107224;27;20170;-64
2021/07/07 06:52:35;;;;;;;16.60;8.10;;;;;;;28.25;49.68;101320.38;5105526;28;20265;-65
2021/07/07 06:55:03;;;;;;;9.95;7.88;;;;;;;28.26;49.48;101267.00;5105551;28;20243;-65
2021/07/07 06:57:34;;;;;;;12.07;7.47;;;;;;;28.61;49.03;101313.16;5107203;28;20177;-67
2021/07/07 07:00:00;;;;;;;16.48;8.10;;;;;;;28.60;51.31;101317.31;5101905;28;20201;-66
2021/07/07 07:02:25;;;;;;;11.25;7.90;;;;;;;28.67;50.09;101310.97;5092559;28;20638;-64
2021/07/07 07:04:51;;;;;;;11.30;7.85;;;;;;;28.51;50.73;101309.16;5106571;28;20250;-63
2021/07/07 07:07:16;;;;;;;9.53;7.80;;;;;;;28.44;50.06;101317.56;5108061;27;20178;-63
2021/07/07 07:09:42;;;;;;;9.93;7.60;;;;;;;28.17;51.28;101305.22;5107652;28;20265;-63
2021/07/07 07:12:07;;;;;;;9.13;8.03;;;;;;;27.79;50.86;101231.66;5106538;28;20174;-63
2021/07/07 07:14:33;;;;;;;10.80;7.97;;;;;;;28.49;49.63;101320.34;5106045;28;20187;-64
2021/07/07 07:16:58;;;;;;;13.47;7.50;;;;;;;28.53;50.77;101320.00;5098915;28;20273;-64
2021/07/07 07:19:24;;;;;;;10.67;7.70;;;;;;;28.56;50.12;101318.94;5104721;27;20198;-64
2021/07/07 07:21:49;;;;;;;9.53;7.50;;;;;;;28.67;49.83;101319.53;5104478;28;20242;-64
2021/07/07 07:24:15;;;;;;;9.03;7.90;;;;;;;28.89;49.11;101326.97;5102454;28;20673;-63
2021/07/07 07:26:40;;;;;;;11.63;7.67;;;;;;;28.44;48.97;101243.41;5104581;28;20175;-64
2021/07/07 07:29:06;;;;;;;12.60;7.95;;;;;;;28.31;48.81;101209.91;5107104;28;20197;-64
2021/07/07 07:31:32;;;;;;;11.80;7.78;;;;;;;29.18;48.72;101326.75;5105665;28;20174;-63
2021/07/07 07:33:58;;;;;;;13.40;7.65;;;;;;;29.23;48.73;101328.75;5109668;28;20189;-64
2021/07/07 07:36:23;;;;;;;15.10;8.50;;;;;;;29.06;48.00;101302.59;5110587;27;20563;-64
2021/07/07 07:38:58;;;;;;;8.98;7.40;;;;;;;28.77;48.22;101243.66;5109855;28;20198;-64
2021/07/07 07:41:38;;;;;;;9.50;8.13;;;;;;;29.34;49.09;101327.78;5109341;28;20196;-64
2021/07/07 07:44:07;;;;;;;12.50;7.78;;;;;;;28.89;49.45;101302.09;5111234;27;20189;-64
2021/07/07 07:46:33;;;;;;;13.30;8.47;;;;;;;29.23;49.42;101333.72;5106410;28;20185;-64
2021/07/07 07:49:00;;;;;;;13.10;8.00;;;;;;;29.41;48.21;101332.84;5111778;27;20596;-64
2021/07/07 07:51:26;;;;;;;10.85;7.60;;;;;;;29.52;48.76;101329.78;5107995;28;20527;-63
2021/07/07 07:53:51;;;;;;;13.25;7.45;;;;;;;29.70;47.87;101337.53;5109763;28;20747;-63
2021/07/07 07:56:18;;;;;;;9.63;7.93;;;;;;;29.84;48.67;101331.25;5101015;28;20574;-64
2021/07/07 07:58:43;;;;;;;12.50;7.90;;;;;;;29.90;48.20;101329.06;5106933;28;20286;-63
2021/07/07 08:01:09;;;;;;;12.70;8.48;;;;;;;29.90;47.34;101342.59;5108315;28;20209;-64
2021/07/07 08:03:35;;;;;;;8.32;7.55;;;;;;;29.96;47.03;101321.16;5109186;28;20182;-64
2021/07/07 08:06:01;;;;;;;13.95;7.57;;;;;;;30.10;47.45;101327.63;5108925;28;20182;-64
2021/07/07 08:08:26;;;;;;;9.70;8.15;;;;;;;30.09;47.61;101314.66;5108152;28;20173;-63
2021/07/07 08:10:52;;;;;;;11.05;7.60;;;;;;;30.13;46.67;101317.97;5102818;28;20216;-64
2021/07/07 08:13:17;;;;;;;10.85;7.65;;;;;;;30.33;46.26;101329.47;5111462;27;20190;-64
2021/07/07 08:15:42;;;;;;;10.60;7.85;;;;;;;30.44;46.10;101328.44;5107189;28;20192;-64
2021/07/07 08:18:08;;;;;;;9.23;7.88;;;;;;;30.21;45.75;101299.59;5107662;28;20177;-64
2021/07/07 08:20:33;;;;;;;9.90;8.30;;;;;;;30.47;45.80;101330.22;5108415;28;20234;-63
2021/07/07 08:22:59;;;;;;;11.60;7.95;;;;;;;30.39;46.47;101332.97;5104452;28;20266;-64
2021/07/07 08:25:25;;;;;;;10.07;8.43;;;;;;;30.32;45.87;101327.94;5106092;28;20194;-64
2021/07/07 08:27:51;;;;;;;14.57;7.97;;;;;;;30.47;46.32;101330.22;5107855;28;20189;-64
2021/07/07 08:30:17;;;;;;;10.77;8.32;;;;;;;29.87;46.54;101244.44;5107388;28;20174;-64
2021/07/07 08:32:43;;;;;;;13.30;7.97;;;;;;;30.57;46.01;101323.47;5106719;28;20655;-64
2021/07/07 08:35:10;;;;;;;11.15;7.78;;;;;;;30.79;45.54;101322.97;5109175;28;20220;-64
2021/07/07 08:37:35;;;;;;;11.73;7.70;;;;;;;31.02;45.21;101329.69;5112941;27;20692;-64
2021/07/07 08:40:03;;;;;;;10.85;7.30;;;;;;;31.27;45.27;101322.28;5107548;28;20194;-64
2021/07/07 08:42:33;;;;;;;10.75;7.35;;;;;;;31.43;44.96;101326.81;5108655;28;20178;-64
2021/07/07 08:45:00;;;;;;;11.38;7.72;;;;;;;31.61;44.46;101331.53;5108816;28;20301;-64
2021/07/07 08:47:25;;;;;;;11.63;7.55;;;;;;;31.65;44.32;101313.97;5103201;28;20235;-67
2021/07/07 08:49:51;;;;;;;10.50;7.47;;;;;;;31.84;43.91;101334.59;5109613;27;20265;-68
2021/07/07 08:52:17;;;;;;;8.48;7.68;;;;;;;31.20;43.73;101248.56;5111034;28;20191;-70
2021/07/07 08:54:47;;;;;;;10.68;7.53;;;;;;;31.50;44.24;101328.97;5090365;28;20221;-68
2021/07/07 08:57:13;;;;;;;10.77;8.00;;;;;;;31.50;44.54;101328.19;5103476;28;20227;-68
2021/07/07 08:59:38;;;;;;;9.35;7.38;;;;;;;31.51;44.36;101312.53;5107577;28;20282;-68
2021/07/07 09:02:09;;;;;;;12.07;8.02;;;;;;;31.73;43.85;101323.41;5111187;28;20193;-69
2021/07/07 09:04:36;;;;;;;11.38;7.45;;;;;;;30.99;44.19;101216.31;5108599;28;20178;-68
2021/07/07 09:07:13;;;;;;;9.20;7.82;;;;;;;31.76;44.46;101350.94;5093772;28;20185;-68
2021/07/07 09:09:43;;;;;;;11.80;7.93;;;;;;;31.96;43.90;101332.94;5105417;28;20213;-68
2021/07/07 09:12:12;;;;;;;10.93;8.07;;;;;;;32.09;43.54;101333.56;5106412;28;20561;-68
2021/07/07 09:14:38;;;;;;;13.48;8.32;;;;;;;31.91;43.84;101288.00;5092412;28;20190;-69
2021/07/07 09:17:14;;;;;;;11.73;7.80;;;;;;;31.89;43.04;101279.94;5086010;28;20272;-69
2021/07/07 09:19:41;;;;;;;12.32;8.23;;;;;;;32.20;43.30;101341.84;5110148;28;20536;-69
2021/07/07 09:22:09;;;;;;;10.40;8.45;;;;;;;31.81;43.61;101295.56;5108275;28;20192;-68
2021/07/07 09:24:36;;;;;;;9.32;7.40;;;;;;;31.96;44.37;101312.84;5111014;28;20198;-68
2021/07/07 09:27:05;;;;;;;11.15;7.90;;;;;;;32.10;43.84;101297.06;5109430;28;20190;-68
2021/07/07 09:29:37;;;;;;;8.82;7.55;;;;;;;32.51;43.70;101332.03;5108359;28;20182;-69
2021/07/07 09:32:27;;;;;;;9.98;7.78;;;;;;;32.76;43.45;101335.19;5094483;28;20207;-68
2021/07/07 09:34:57;;;;;;;10.60;7.50;;;;;;;32.31;42.61;101275.59;5099695;28;20269;-68
2021/07/07 09:37:40;;;;;;;10.35;7.80;;;;;;;32.63;42.52;101318.88;5109191;28;20320;-69
2021/07/07 09:40:09;;;;;;;10.20;7.53;;;;;;;32.71;42.62;101336.13;5101615;28;20209;-65
2021/07/07 09:42:37;;;;;;;11.73;7.97;;;;;;;32.97;42.52;101335.81;5109337;28;20543;-74
2021/07/07 09:45:05;;;;;;;11.45;8.02;;;;;;;33.13;41.56;101334.50;5109802;28;20183;-64
2021/07/07 09:47:31;;;;;;;10.10;7.45;;;;;;;33.33;41.11;101327.81;5103414;28;20191;-63
2021/07/07 09:49:59;;;;;;;11.05;7.20;;;;;;;33.43;40.68;101320.91;5111319;28;20174;-66
2021/07/07 09:52:30;;;;;;;7.80;6.80;;;;;;;33.67;40.75;101340.44;5107400;28;20182;-63
2021/07/07 09:54:56;;;;;;;12.55;7.30;;;;;;;33.31;40.07;101290.28;5108349;28;20201;-63
2021/07/07 09:57:23;;;;;;;13.13;7.25;;;;;;;33.54;40.29;101329.16;5107366;28;20182;-63
2021/07/07 09:59:49;;;;;;;8.10;7.00;;;;;;;33.46;40.20;101296.00;5089730;28;20218;-63
2021/07/07 10:02:15;;;;;;;8.10;6.68;;;;;;;33.77;39.78;101323.34;5109678;28;20194;-63
2021/07/07 10:04:42;;;;;;;10.70;6.93;;;;;;;33.98;39.57;101321.78;5109043;28;20208;-63
2021/07/07 10:07:09;;;;;;;9.70;6.65;;;;;;;34.22;39.07;101323.22;5113754;27;20178;-63
2021/07/07 10:09:40;;;;;;;13.13;6.65;;;;;;;33.66;38.32;101218.19;5110443;28;20201;-63
2021/07/07 10:12:06;;;;;;;9.35;6.80;;;;;;;34.40;38.46;101296.88;5111007;28;20197;-62
2021/07/07 10:14:32;;;;;;;10.18;7.00;;;;;;;34.17;37.70;101273.22;5110723;28;20186;-63
2021/07/07 10:16:59;;;;;;;10.77;6.88;;;;;;;34.36;38.16;101290.78;5109828;28;20193;-62
2021/07/07 10:19:25;;;;;;;10.02;6.50;;;;;;;34.65;38.12;101317.84;5110381;28;20194;-62
2021/07/07 10:21:51;;;;;;;11.88;6.88;;;;;;;34.89;38.08;101317.16;5110864;28;20600;-62
2021/07/07 10:24:21;;;;;;;12.20;7.28;;;;;;;35.01;37.41;101306.69;5092935;27;20190;-62
2021/07/07 10:26:48;;;;;;;13.40;7.10;;;;;;;34.86;37.86;101312.56;5111739;28;20252;-63
2021/07/07 10:29:15;;;;;;;13.15;6.85;;;;;;;34.82;37.73;101308.56;5110169;28;20197;-63
2021/07/07 10:31:46;;;;;;;9.57;6.22;;;;;;;35.01;36.75;101300.94;5112080;27;20273;-63
2021/07/07 10:34:12;;;;;;;10.85;6.50;;;;;;;35.25;36.85;101305.94;5109298;28;20186;-63
2021/07/07 10:36:41;;;;;;;8.32;6.15;;;;;;;35.46;36.93;101311.31;5109570;28;20675;-63
2021/07/07 10:39:09;;;;;;;8.48;6.70;;;;;;;35.67;36.43;101303.81;5108740;28;20579;-62
2021/07/07 10:41:51;;;;;;;8.80;6.80;;;;;;;35.84;35.60;101294.44;5112037;27;20270;-63
2021/07/07 10:44:22;;;;;;;10.02;6.15;;;;;;;35.99;34.61;101300.78;5110748;28;20174;-64
2021/07/07 10:46:57;;;;;;;10.68;6.53;;;;;;;36.17;34.62;101293.63;5106287;28;20579;-63
2021/07/07 10:49:45;;;;;;;9.98;6.38;;;;;;;35.96;34.32;101287.56;5111513;27;20177;-63
2021/07/07 10:52:19;;;;;;;10.73;6.35;;;;;;;35.70;35.30;101284.56;5109788;28;20312;-63
2021/07/07 10:54:59;;;;;;;12.57;6.53;;;;;;;35.84;35.49;101285.78;5104067;27;20193;-63
2021/07/07 10:57:35;;;;;;;10.77;6.78;;;;;;;35.98;35.57;101278.31;5104292;28;20190;-63
2021/07/07 11:00:01;;;;;;;13.63;6.53;;;;;;;36.09;34.78;101278.53;5108785;28;20228;-63
2021/07/07 11:02:27;;;;;;;10.73;6.22;;;;;;;36.00;35.16;101266.94;5109730;27;20197;-63
2021/07/07 11:05:01;;;;;;;13.07;6.65;;;;;;;36.24;35.17;101266.81;5110280;28;20612;-63
2021/07/07 11:07:32;;;;;;;10.00;6.22;;;;;;;36.39;33.63;101275.28;5110971;27;20178;-63
2021/07/07 11:10:15;;;;;;;9.90;6.35;;;;;;;36.41;34.09;101274.69;5109793;28;20261;-63
2021/07/07 11:12:41;;;;;;;9.48;6.20;;;;;;;36.45;33.60;101272.88;5104539;28;20179;-63
2021/07/07 11:15:09;;;;;;;10.65;6.60;;;;;;;36.39;33.38;101268.75;5101679;28;20673;-62
2021/07/07 11:17:40;;;;;;;9.50;6.28;;;;;;;36.34;33.73;101278.44;5109279;28;20186;-63